Time;durP1;ratioP1;P1;durP2;ratioP2;P2;SDS_P1;SDS_P2;PMS_P1;PMS_P2;Temp;Humidity;BMP_temperature;BMP_pressure;BME280_temperature;BME280_humidity;BME280_pressure;Samples;Min_cycle;Max_cycle;Signal;HPM_P1;HPM_P2
2023/08/23 00:02:15;;;;;;;7.88;6.57;;;19.60;99.90;;;;;;5037023;28;20451;-70
2023/08/23 00:04:40;;;;;;;11.07;7.10;;;19.30;99.90;;;;;;5055025;28;20056;-70
2023/08/23 00:07:06;;;;;;;10.77;7.38;;;19.30;99.90;;;;;;5036936;28;20045;-71
2023/08/23 00:09:32;;;;;;;10.43;7.15;;;19.10;99.90;;;;;;5037083;28;20079;-69
2023/08/23 00:11:57;;;;;;;12.10;7.13;;;19.50;99.90;;;;;;5037193;28;20051;-69
2023/08/23 00:14:23;;;;;;;11.82;8.15;;;19.00;99.90;;;;;;5054642;28;20036;-69
2023/08/23 00:16:49;;;;;;;11.50;7.68;;;19.10;99.90;;;;;;5036695;28;20044;-69
2023/08/23 00:19:14;;;;;;;10.68;8.02;;;19.30;99.90;;;;;;5054711;28;20037;-69
2023/08/23 00:21:40;;;;;;;10.55;8.52;;;19.40;99.90;;;;;;5020464;28;20048;-69
2023/08/23 00:24:05;;;;;;;12.50;8.23;;;19.00;99.90;;;;;;5036930;28;20082;-69
2023/08/23 00:26:31;;;;;;;12.05;9.13;;;19.20;99.90;;;;;;5036849;28;20041;-69
2023/08/23 00:28:57;;;;;;;11.88;8.52;;;19.10;99.90;;;;;;5037005;28;20299;-68
2023/08/23 00:31:22;;;;;;;11.95;7.47;;;19.30;99.90;;;;;;5036492;28;20098;-69
2023/08/23 00:33:48;;;;;;;12.32;8.30;;;19.10;99.90;;;;;;5054536;28;20040;-68
2023/08/23 00:36:13;;;;;;;10.60;7.85;;;20.20;99.90;;;;;;5036522;28;20119;-69
2023/08/23 00:38:39;;;;;;;11.77;8.52;;;19.10;99.90;;;;;;5036446;28;20386;-69
2023/08/23 00:41:04;;;;;;;10.20;7.97;;;19.10;99.90;;;;;;5054277;28;20043;-69
2023/08/23 00:43:30;;;;;;;9.73;7.00;;;19.50;99.90;;;;;;5054114;28;20452;-69
2023/08/23 00:45:56;;;;;;;9.07;7.68;;;20.40;99.90;;;;;;5036337;28;20047;-69
2023/08/23 00:48:21;;;;;;;9.93;7.32;;;19.00;99.90;;;;;;5054413;28;20087;-69
2023/08/23 00:50:48;;;;;;;10.98;7.15;;;18.70;99.90;;;;;;5036425;28;20045;-69
2023/08/23 00:53:14;;;;;;;9.50;7.65;;;18.90;99.90;;;;;;5019780;28;20038;-69
2023/08/23 00:55:41;;;;;;;11.27;7.88;;;18.90;99.90;;;;;;5036049;28;20037;-69
2023/08/23 00:58:07;;;;;;;15.20;8.43;;;19.00;99.90;;;;;;5019746;28;20052;-69
2023/08/23 01:00:33;;;;;;;12.18;7.82;;;18.80;99.90;;;;;;5019579;28;20049;-69
2023/08/23 01:02:59;;;;;;;12.15;8.52;;;18.80;99.90;;;;;;5054170;28;20086;-69
2023/08/23 01:05:56;;;;;;;11.57;8.23;;;19.20;99.90;;;;;;5035269;28;20546;-69
2023/08/23 01:08:48;;;;;;;9.00;7.00;;;18.90;99.90;;;;;;5019640;28;20123;-68
2023/08/23 01:11:27;;;;;;;12.27;8.82;;;18.80;99.90;;;;;;5035840;28;20045;-69
2023/08/23 01:14:15;;;;;;;10.25;8.25;;;18.90;99.90;;;;;;5035683;28;20076;-69
2023/08/23 01:16:46;;;;;;;11.43;7.93;;;18.70;99.90;;;;;;5035906;28;20072;-69
2023/08/23 01:19:45;;;;;;;10.23;7.72;;;18.70;99.90;;;;;;5035796;28;20033;-69
2023/08/23 01:22:16;;;;;;;12.48;8.57;;;18.90;99.90;;;;;;5035716;28;20036;-69
2023/08/23 01:24:42;;;;;;;11.10;7.15;;;18.60;99.90;;;;;;5035365;28;20037;-69
2023/08/23 01:27:07;;;;;;;9.23;7.40;;;18.90;99.90;;;;;;5053494;28;20045;-69
2023/08/23 01:29:33;;;;;;;11.23;7.10;;;18.70;99.90;;;;;;5035485;28;20044;-69
2023/08/23 01:32:13;;;;;;;14.70;9.32;;;18.50;99.90;;;;;;5035636;28;20037;-69
2023/08/23 01:34:46;;;;;;;12.30;7.82;;;18.60;99.90;;;;;;5053404;28;20064;-70
2023/08/23 01:37:12;;;;;;;;;;;19.00;99.90;;;;;;5036364;28;20052;-69
2023/08/23 01:39:38;;;;;;;10.63;6.78;;;18.50;99.90;;;;;;5035775;28;20015;-69
2023/08/23 01:42:05;;;;;;;8.93;6.72;;;18.60;99.90;;;;;;5035430;28;20136;-69
2023/08/23 01:44:30;;;;;;;10.48;7.65;;;18.70;99.90;;;;;;5053177;28;20033;-69
2023/08/23 01:46:56;;;;;;;10.80;7.72;;;18.60;99.90;;;;;;5035621;28;20406;-69
2023/08/23 01:49:22;;;;;;;11.27;7.57;;;18.70;99.90;;;;;;5035122;28;20099;-69
2023/08/23 01:51:47;;;;;;;10.13;7.30;;;18.50;99.90;;;;;;5035123;28;20381;-69
2023/08/23 01:54:13;;;;;;;11.60;8.38;;;18.70;99.90;;;;;;5034638;28;20044;-69
2023/08/23 01:56:38;;;;;;;9.75;7.22;;;18.60;99.90;;;;;;5034940;28;20037;-69
2023/08/23 01:59:04;;;;;;;11.38;8.32;;;18.50;99.90;;;;;;5035301;28;20033;-68
2023/08/23 02:01:31;;;;;;;11.25;8.02;;;18.40;99.90;;;;;;5035017;28;20528;-69
2023/08/23 02:03:57;;;;;;;9.95;7.43;;;18.40;99.90;;;;;;5035149;28;20408;-69
2023/08/23 02:06:22;;;;;;;9.63;7.55;;;18.40;99.90;;;;;;5034921;28;20032;-69
2023/08/23 02:08:48;;;;;;;13.20;8.50;;;18.30;99.90;;;;;;5034922;28;20099;-69
2023/08/23 02:11:14;;;;;;;10.38;8.27;;;18.30;99.90;;;;;;5034991;28;20047;-69
2023/08/23 02:13:39;;;;;;;12.70;7.07;;;18.40;99.90;;;;;;5034616;28;20492;-69
2023/08/23 02:16:05;;;;;;;10.23;8.40;;;18.10;99.90;;;;;;5018363;28;20045;-69
2023/08/23 02:18:31;;;;;;;12.80;7.70;;;;;;;;;;5017388;28;20080;-69
2023/08/23 02:20:57;;;;;;;10.90;8.43;;;18.30;99.90;;;;;;5034796;28;20128;-69
2023/08/23 02:23:24;;;;;;;10.48;8.30;;;18.30;99.90;;;;;;5034732;28;20099;-69
2023/08/23 02:25:51;;;;;;;13.00;8.35;;;18.10;99.90;;;;;;5052078;28;20033;-68
2023/08/23 02:28:16;;;;;;;11.38;9.32;;;18.30;99.90;;;;;;5052326;28;20041;-69
2023/08/23 02:30:42;;;;;;;12.82;8.88;;;18.30;99.90;;;;;;5034403;28;20455;-69
2023/08/23 02:33:07;;;;;;;11.77;8.00;;;18.40;99.90;;;;;;5034776;28;20036;-69
2023/08/23 02:35:33;;;;;;;12.75;9.68;;;18.20;99.90;;;;;;5052163;28;20123;-69
2023/08/23 02:38:01;;;;;;;11.57;9.40;;;;;;;;;;5034392;28;20044;-69
2023/08/23 02:40:27;;;;;;;13.60;10.32;;;18.10;99.90;;;;;;5034285;28;20040;-68
2023/08/23 02:42:55;;;;;;;10.80;8.32;;;18.30;99.90;;;;;;5034200;28;20039;-69
2023/08/23 02:45:21;;;;;;;12.88;8.77;;;18.40;99.90;;;;;;5034229;28;20049;-69
2023/08/23 02:47:47;;;;;;;12.10;10.02;;;18.30;99.90;;;;;;5034410;28;20040;-69
2023/08/23 02:50:12;;;;;;;12.75;9.20;;;18.30;99.90;;;;;;5033942;28;20045;-69
2023/08/23 02:52:38;;;;;;;10.50;8.13;;;18.40;99.90;;;;;;5052026;28;20500;-69
2023/08/23 02:55:04;;;;;;;10.55;8.63;;;18.40;99.90;;;;;;5033762;28;20048;-69
2023/08/23 02:57:29;;;;;;;10.55;8.35;;;18.50;99.90;;;;;;5033962;28;20041;-69
2023/08/23 02:59:55;;;;;;;8.90;7.82;;;18.20;99.90;;;;;;5034224;28;20035;-68
2023/08/23 03:02:21;;;;;;;10.68;8.70;;;18.30;99.90;;;;;;5033913;28;20198;-69
2023/08/23 03:04:46;;;;;;;10.40;7.93;;;18.10;99.90;;;;;;5033682;28;20079;-69
2023/08/23 03:07:12;;;;;;;10.52;8.60;;;18.30;99.90;;;;;;5033951;28;20041;-69
2023/08/23 03:09:38;;;;;;;11.77;7.75;;;18.50;99.90;;;;;;5034438;28;20075;-69
2023/08/23 03:12:04;;;;;;;10.93;8.75;;;18.20;99.90;;;;;;5018648;28;20041;-70
2023/08/23 03:14:30;;;;;;;8.05;7.22;;;18.40;99.90;;;;;;5034972;28;20124;-69
2023/08/23 03:16:55;;;;;;;10.05;8.82;;;18.50;99.90;;;;;;5052654;28;20041;-69
2023/08/23 03:19:21;;;;;;;10.48;8.70;;;18.50;99.90;;;;;;5051685;28;20036;-69
2023/08/23 03:21:47;;;;;;;10.55;8.40;;;18.50;99.90;;;;;;5033380;28;20032;-69
2023/08/23 03:24:12;;;;;;;9.77;7.97;;;18.20;99.90;;;;;;5051222;28;20451;-69
2023/08/23 03:26:38;;;;;;;12.88;8.85;;;18.40;99.90;;;;;;5033488;28;20450;-69
2023/08/23 03:29:04;;;;;;;10.20;8.43;;;18.30;99.90;;;;;;5051162;28;20040;-69
2023/08/23 03:31:29;;;;;;;12.43;8.70;;;18.40;99.90;;;;;;5033420;28;20552;-69
2023/08/23 03:33:55;;;;;;;11.38;8.65;;;18.50;99.90;;;;;;5033455;28;20045;-69
2023/08/23 03:36:21;;;;;;;9.85;8.07;;;18.40;99.90;;;;;;5017099;28;20041;-69
2023/08/23 03:38:47;;;;;;;11.52;8.35;;;18.50;99.90;;;;;;5051332;28;20045;-69
2023/08/23 03:41:13;;;;;;;11.00;8.57;;;18.50;99.90;;;;;;5033633;28;20043;-68
2023/08/23 03:43:39;;;;;;;11.15;8.52;;;18.30;99.90;;;;;;5033341;28;20037;-68
2023/08/23 03:46:05;;;;;;;10.00;7.78;;;18.60;99.90;;;;;;5033767;28;20032;-69
2023/08/23 03:48:30;;;;;;;14.23;8.50;;;18.50;99.90;;;;;;5033518;28;20079;-69
2023/08/23 03:50:59;;;;;;;11.77;8.75;;;18.40;99.90;;;;;;5033635;28;20037;-69
2023/08/23 03:53:26;;;;;;;13.63;9.02;;;18.50;99.90;;;;;;5033355;28;20531;-69
2023/08/23 03:55:52;;;;;;;14.93;10.02;;;18.70;99.90;;;;;;5033216;28;20041;-69
2023/08/23 03:58:18;;;;;;;12.30;9.52;;;18.30;99.90;;;;;;5033335;28;20087;-69
2023/08/23 04:00:49;;;;;;;12.07;8.55;;;18.60;99.90;;;;;;5051081;28;20041;-69
2023/08/23 04:03:15;;;;;;;12.05;9.07;;;18.50;99.90;;;;;;5051212;28;20044;-68
2023/08/23 04:05:40;;;;;;;14.73;10.10;;;18.70;99.90;;;;;;5033071;28;20033;-69
2023/08/23 04:08:06;;;;;;;14.32;10.07;;;18.40;99.90;;;;;;5033251;28;20135;-69
2023/08/23 04:10:32;;;;;;;13.82;10.45;;;18.80;99.90;;;;;;5051511;28;20040;-69
2023/08/23 04:12:58;;;;;;;14.40;10.68;;;18.60;99.90;;;;;;5033262;28;20405;-69
2023/08/23 04:15:23;;;;;;;17.67;11.45;;;18.70;99.90;;;;;;5033042;28;20085;-69
2023/08/23 04:17:49;;;;;;;15.90;12.43;;;18.40;99.90;;;;;;5033230;28;20660;-69
2023/08/23 04:20:15;;;;;;;17.70;12.30;;;18.70;99.90;;;;;;5033065;28;20041;-69
2023/08/23 04:22:41;;;;;;;14.98;10.95;;;18.50;99.90;;;;;;5050840;28;20119;-69
2023/08/23 04:25:07;;;;;;;19.63;13.63;;;18.70;99.90;;;;;;5032836;28;20073;-69
2023/08/23 04:27:33;;;;;;;18.30;12.07;;;18.70;99.90;;;;;;5032408;28;20063;-69
2023/08/23 04:29:58;;;;;;;17.80;12.35;;;18.80;99.90;;;;;;5032993;28;20510;-69
2023/08/23 04:32:24;;;;;;;13.48;10.63;;;18.30;99.90;;;;;;5033042;28;20489;-69
2023/08/23 04:34:50;;;;;;;16.23;11.50;;;19.30;99.90;;;;;;5032875;28;20037;-69
2023/08/23 04:37:16;;;;;;;20.88;14.43;;;18.60;99.90;;;;;;5032771;28;20095;-69
2023/08/23 04:39:42;;;;;;;17.92;11.95;;;18.50;99.90;;;;;;5032979;28;20045;-69
2023/08/23 04:42:08;;;;;;;22.13;13.88;;;18.70;99.90;;;;;;5035931;28;20432;-69
2023/08/23 04:44:33;;;;;;;18.77;13.02;;;18.90;99.90;;;;;;5036365;28;20087;-69
2023/08/23 04:46:59;;;;;;;16.90;12.68;;;18.50;99.90;;;;;;5054324;28;20041;-69
2023/08/23 04:49:25;;;;;;;20.13;13.73;;;18.80;99.90;;;;;;5036428;28;20037;-69
2023/08/23 04:51:50;;;;;;;19.60;14.30;;;18.80;99.90;;;;;;5036207;28;20049;-69
2023/08/23 04:54:16;;;;;;;19.30;13.18;;;19.70;99.90;;;;;;5036088;28;20033;-69
2023/08/23 04:56:41;;;;;;;20.35;14.35;;;18.60;99.90;;;;;;5036483;28;20400;-69
2023/08/23 04:59:07;;;;;;;22.05;15.35;;;18.90;99.90;;;;;;5036159;28;20086;-69
2023/08/23 05:01:32;;;;;;;21.05;13.63;;;18.90;99.90;;;;;;5036363;28;20048;-69
2023/08/23 05:03:58;;;;;;;21.90;13.82;;;18.80;99.90;;;;;;5053887;28;20037;-69
2023/08/23 05:06:24;;;;;;;20.33;13.15;;;18.60;99.90;;;;;;5036132;28;20533;-69
2023/08/23 05:08:49;;;;;;;17.55;12.63;;;18.70;99.90;;;;;;5036224;28;20029;-69
2023/08/23 05:11:15;;;;;;;19.25;13.15;;;18.70;99.90;;;;;;5036337;28;20069;-70
2023/08/23 05:13:40;;;;;;;17.45;13.07;;;18.90;99.90;;;;;;5036143;28;20041;-70
2023/08/23 05:16:06;;;;;;;17.75;13.10;;;18.90;99.90;;;;;;5019579;28;20123;-70
2023/08/23 05:18:31;;;;;;;22.70;15.95;;;18.40;99.90;;;;;;5035892;28;20037;-69
2023/08/23 05:21:02;;;;;;;20.25;14.10;;;18.80;99.90;;;;;;5036778;28;20079;-70
2023/08/23 05:23:28;;;;;;;18.77;13.57;;;18.80;99.90;;;;;;5056063;28;20110;-70
2023/08/23 05:25:54;;;;;;;19.70;14.13;;;18.90;99.90;;;;;;5055524;28;20503;-70
2023/08/23 05:28:20;;;;;;;19.30;15.18;;;18.50;99.90;;;;;;5039305;28;20512;-70
2023/08/23 05:30:46;;;;;;;20.23;13.95;;;18.90;99.90;;;;;;5055379;28;20036;-69
2023/08/23 05:33:12;;;;;;;23.75;16.48;;;18.80;99.90;;;;;;5055731;28;20048;-69
2023/08/23 05:35:40;;;;;;;24.65;17.10;;;18.70;99.90;;;;;;5055388;28;20044;-69
2023/08/23 05:38:06;;;;;;;18.75;13.60;;;18.60;99.90;;;;;;5073526;28;20040;-69
2023/08/23 05:40:32;;;;;;;20.15;13.88;;;18.50;99.90;;;;;;5055134;28;20408;-70
2023/08/23 05:42:57;;;;;;;16.60;13.25;;;18.60;99.90;;;;;;5055336;28;20068;-70
2023/08/23 05:45:26;;;;;;;17.23;12.70;;;18.90;99.90;;;;;;5073028;28;20431;-70
2023/08/23 05:47:53;;;;;;;21.92;15.93;;;18.70;99.90;;;;;;5047842;28;20032;-70
2023/08/23 05:50:19;;;;;;;23.08;17.27;;;18.90;99.90;;;;;;5034587;28;20458;-69
2023/08/23 05:52:45;;;;;;;18.67;15.18;;;18.80;99.90;;;;;;5034665;28;20171;-70
2023/08/23 05:55:11;;;;;;;17.63;13.07;;;19.00;99.90;;;;;;5018151;28;20037;-70
2023/08/23 05:57:36;;;;;;;18.33;14.27;;;18.90;99.90;;;;;;5035038;28;20045;-70
2023/08/23 06:00:05;;;;;;;18.52;13.73;;;19.20;99.90;;;;;;5035034;28;20400;-69
2023/08/23 06:02:31;;;;;;;20.08;14.68;;;19.10;99.90;;;;;;5009532;28;20596;-70
2023/08/23 06:04:58;;;;;;;23.50;15.55;;;19.20;99.90;;;;;;5028330;28;20029;-70
2023/08/23 06:07:24;;;;;;;20.95;14.52;;;19.30;99.90;;;;;;5014860;28;20128;-69
2023/08/23 06:09:50;;;;;;;18.80;14.75;;;19.50;99.90;;;;;;5030751;28;20127;-70
2023/08/23 06:12:16;;;;;;;17.42;12.80;;;19.40;99.90;;;;;;5032563;28;20044;-69
2023/08/23 06:14:41;;;;;;;17.02;12.93;;;19.50;99.90;;;;;;5031410;28;20052;-70
2023/08/23 06:17:07;;;;;;;17.50;13.88;;;;;;;;;;5014686;28;20049;-70
2023/08/23 06:19:33;;;;;;;19.17;14.93;;;20.00;99.90;;;;;;5030954;28;20052;-70
2023/08/23 06:21:59;;;;;;;19.65;14.40;;;20.00;99.90;;;;;;5031105;28;20136;-70
2023/08/23 06:24:24;;;;;;;16.05;12.55;;;19.90;99.90;;;;;;5038217;28;20039;-69
2023/08/23 06:26:50;;;;;;;17.55;12.95;;;19.90;99.90;;;;;;5030685;28;20110;-70
2023/08/23 06:29:17;;;;;;;23.73;14.35;;;20.40;99.90;;;;;;5030205;28;20065;-70
2023/08/23 06:31:42;;;;;;;19.55;14.13;;;20.40;99.90;;;;;;5033324;28;20094;-69
2023/08/23 06:34:08;;;;;;;21.10;14.90;;;20.40;99.90;;;;;;5033141;28;20045;-70
2023/08/23 06:36:34;;;;;;;18.17;13.70;;;;;;;;;;5033796;28;20397;-70
2023/08/23 06:39:00;;;;;;;20.00;12.75;;;20.80;99.90;;;;;;5032809;28;20043;-72
2023/08/23 06:41:25;;;;;;;18.83;13.43;;;20.70;99.90;;;;;;5032634;28;20036;-71
2023/08/23 06:43:58;;;;;;;20.77;13.48;;;20.70;99.90;;;;;;5033873;28;20458;-71
2023/08/23 06:46:24;;;;;;;22.42;13.45;;;21.20;99.90;;;;;;5033875;28;20380;-71
2023/08/23 06:48:50;;;;;;;22.08;13.65;;;21.40;99.90;;;;;;5016853;28;20131;-71
2023/08/23 06:51:15;;;;;;;17.58;11.65;;;21.30;99.90;;;;;;5033165;28;20037;-71
2023/08/23 06:53:41;;;;;;;22.38;13.32;;;21.90;99.90;;;;;;5033350;28;20424;-71
2023/08/23 06:56:11;;;;;;;34.63;13.77;;;21.60;99.90;;;;;;5033908;28;20049;-71
2023/08/23 06:58:37;;;;;;;56.55;16.23;;;21.30;99.90;;;;;;5031573;28;20053;-71
2023/08/23 07:01:05;;;;;;;22.88;14.43;;;21.50;99.90;;;;;;5015681;28;20603;-72
2023/08/23 07:03:31;;;;;;;20.50;13.38;;;21.30;99.90;;;;;;5015650;28;20052;-74
2023/08/23 07:06:01;;;;;;;20.27;13.35;;;21.20;99.90;;;;;;5032774;28;20033;-71
2023/08/23 07:08:27;;;;;;;39.47;14.23;;;21.40;99.90;;;;;;5033624;28;20400;-70
2023/08/23 07:10:52;;;;;;;23.75;14.38;;;21.50;99.90;;;;;;5052995;28;20060;-72
2023/08/23 07:13:18;;;;;;;29.27;15.25;;;21.40;99.90;;;;;;5033595;28;20050;-71
2023/08/23 07:15:43;;;;;;;21.17;13.57;;;21.20;99.90;;;;;;5033354;28;20110;-71
2023/08/23 07:18:09;;;;;;;22.45;13.60;;;21.60;99.90;;;;;;5033707;28;20159;-71
2023/08/23 07:20:35;;;;;;;20.67;12.73;;;21.50;99.90;;;;;;5017183;28;20039;-71
2023/08/23 07:23:00;;;;;;;20.80;13.85;;;21.70;99.90;;;;;;5033802;28;20079;-71
2023/08/23 07:25:26;;;;;;;25.05;14.25;;;21.80;99.90;;;;;;5033548;28;20068;-71
2023/08/23 07:27:52;;;;;;;19.25;10.73;;;21.60;99.90;;;;;;5033695;28;20308;-69
2023/08/23 07:30:18;;;;;;;15.88;11.93;;;21.70;99.90;;;;;;5033337;28;20051;-69
2023/08/23 07:32:43;;;;;;;17.88;13.07;;;22.00;99.90;;;;;;5017126;28;20136;-70
2023/08/23 07:35:09;;;;;;;16.23;11.60;;;22.20;99.90;;;;;;5033480;28;20041;-70
2023/08/23 07:37:35;;;;;;;17.73;12.40;;;22.00;99.90;;;;;;5051614;28;20037;-71
2023/08/23 07:40:00;;;;;;;19.63;13.60;;;22.80;99.90;;;;;;5033426;28;20037;-69
2023/08/23 07:42:27;;;;;;;21.52;14.25;;;22.50;99.90;;;;;;5033549;28;20041;-69
2023/08/23 07:44:53;;;;;;;14.88;11.32;;;22.70;99.90;;;;;;5033277;28;20051;-69
2023/08/23 07:47:19;;;;;;;18.80;12.48;;;22.70;99.90;;;;;;5033378;28;20556;-68
2023/08/23 07:49:44;;;;;;;17.75;12.60;;;23.00;99.90;;;;;;5033606;28;20044;-68
2023/08/23 07:52:10;;;;;;;19.67;12.38;;;22.50;99.90;;;;;;5016167;28;20500;-70
2023/08/23 07:54:36;;;;;;;24.90;15.35;;;22.80;99.90;;;;;;5016384;28;20484;-70
2023/08/23 07:57:01;;;;;;;27.85;13.95;;;22.80;99.90;;;;;;5033047;28;20523;-70
2023/08/23 07:59:27;;;;;;;21.67;14.18;;;22.80;99.90;;;;;;5033113;28;20048;-69
2023/08/23 08:01:52;;;;;;;21.00;13.35;;;23.10;99.90;;;;;;5033576;28;20060;-69
2023/08/23 08:04:18;;;;;;;23.70;14.98;;;22.80;99.90;;;;;;5033094;28;20040;-72
2023/08/23 08:06:43;;;;;;;23.45;14.27;;;22.70;99.90;;;;;;5033415;28;20036;-69
2023/08/23 08:09:09;;;;;;;21.50;13.45;;;23.10;99.90;;;;;;5032492;28;20127;-71
2023/08/23 08:11:35;;;;;;;24.02;15.30;;;23.50;99.90;;;;;;5016386;28;20496;-70
2023/08/23 08:14:01;;;;;;;18.30;14.70;;;23.40;99.90;;;;;;5032793;28;20048;-70
2023/08/23 08:16:26;;;;;;;23.50;13.65;;;24.30;99.90;;;;;;5035323;28;20033;-72
2023/08/23 08:18:52;;;;;;;20.38;14.95;;;23.70;99.90;;;;;;5036891;28;20106;-70
2023/08/23 08:21:19;;;;;;;19.33;13.52;;;23.60;99.90;;;;;;5036843;28;20033;-69
2023/08/23 08:23:46;;;;;;;18.75;13.73;;;23.50;99.90;;;;;;5036744;28;20041;-70
2023/08/23 08:26:13;;;;;;;20.70;13.98;;;23.70;99.90;;;;;;5036967;28;20037;-69
2023/08/23 08:28:42;;;;;;;15.43;13.38;;;24.00;99.90;;;;;;5036889;28;20048;-70
2023/08/23 08:31:08;;;;;;;24.73;13.48;;;24.00;99.90;;;;;;5054536;28;20041;-69
2023/08/23 08:33:34;;;;;;;21.42;14.85;;;24.00;99.90;;;;;;5054389;28;20037;-69
2023/08/23 08:36:00;;;;;;;17.92;13.93;;;23.60;99.90;;;;;;5019917;28;20041;-70
2023/08/23 08:38:25;;;;;;;17.45;12.50;;;23.70;99.90;;;;;;5036670;28;20037;-69
2023/08/23 08:40:51;;;;;;;21.65;14.35;;;24.00;99.90;;;;;;5054014;28;20390;-69
2023/08/23 08:43:18;;;;;;;19.52;13.75;;;23.80;99.90;;;;;;5036399;28;20493;-70
2023/08/23 08:45:44;;;;;;;17.52;12.77;;;24.20;99.90;;;;;;5035901;28;20037;-69
2023/08/23 08:48:10;;;;;;;18.77;12.77;;;24.20;99.90;;;;;;5019606;28;20037;-72
2023/08/23 08:50:37;;;;;;;16.60;13.05;;;24.50;99.90;;;;;;5036221;28;20113;-69
2023/08/23 08:53:07;;;;;;;19.75;13.63;;;24.90;99.90;;;;;;5034881;28;20455;-70
2023/08/23 08:55:34;;;;;;;15.00;12.40;;;24.70;99.90;;;;;;5035973;28;20049;-69
2023/08/23 08:58:01;;;;;;;17.95;11.95;;;25.00;99.90;;;;;;5054378;28;20558;-68
2023/08/23 09:00:28;;;;;;;21.08;13.48;;;25.10;99.90;;;;;;5036474;28;20045;-69
2023/08/23 09:02:54;;;;;;;16.98;13.60;;;25.20;99.90;;;;;;5035873;28;20464;-67
2023/08/23 09:05:24;;;;;;;19.55;12.73;;;24.80;99.90;;;;;;5036855;28;20141;-71
2023/08/23 09:07:53;;;;;;;21.48;12.25;;;25.00;99.90;;;;;;5034256;28;20037;-72
2023/08/23 09:10:19;;;;;;;14.82;11.57;;;25.20;99.90;;;;;;5036153;28;20121;-71
2023/08/23 09:12:45;;;;;;;19.17;13.43;;;25.20;99.90;;;;;;5036310;28;20044;-71
2023/08/23 09:15:10;;;;;;;13.32;11.70;;;25.40;99.90;;;;;;5053613;28;20033;-71
2023/08/23 09:17:36;;;;;;;17.50;13.32;;;25.20;99.90;;;;;;5035503;28;20435;-71
2023/08/23 09:20:09;;;;;;;15.75;11.82;;;25.00;99.90;;;;;;5035782;28;20044;-71
2023/08/23 09:22:35;;;;;;;15.90;12.20;;;25.20;99.90;;;;;;5035726;28;20124;-71
2023/08/23 09:25:05;;;;;;;14.05;11.65;;;25.30;99.90;;;;;;5015419;28;20040;-70
2023/08/23 09:27:31;;;;;;;17.27;12.60;;;25.00;99.90;;;;;;5015732;28;20374;-72
2023/08/23 09:29:58;;;;;;;15.30;11.65;;;25.20;99.90;;;;;;5015883;28;20098;-71
2023/08/23 09:32:27;;;;;;;14.32;10.63;;;25.50;99.90;;;;;;5029882;28;20033;-71
2023/08/23 09:34:53;;;;;;;17.83;10.35;;;25.40;99.90;;;;;;5035422;28;20492;-72
2023/08/23 09:37:19;;;;;;;15.35;9.05;;;24.80;99.90;;;;;;5035873;28;20037;-72
2023/08/23 09:39:45;;;;;;;11.85;7.85;;;24.60;99.90;;;;;;5035504;28;20029;-70
2023/08/23 09:42:14;;;;;;;11.55;6.93;;;24.90;99.90;;;;;;5053376;28;20033;-71
2023/08/23 09:44:43;;;;;;;14.00;7.03;;;24.80;99.90;;;;;;5035643;28;20124;-72
2023/08/23 09:47:15;;;;;;;11.38;7.78;;;24.90;99.90;;;;;;5053653;28;20047;-73
2023/08/23 09:49:43;;;;;;;10.68;7.05;;;24.90;99.90;;;;;;5035288;28;20047;-72
2023/08/23 09:52:11;;;;;;;9.77;6.70;;;24.90;99.90;;;;;;5018612;28;20441;-71
2023/08/23 09:54:54;;;;;;;9.23;5.55;;;25.00;99.90;;;;;;5034912;28;20504;-71
2023/08/23 09:57:21;;;;;;;7.50;5.28;;;25.10;99.90;;;;;;5035038;28;20037;-72
2023/08/23 09:59:47;;;;;;;11.40;6.00;;;25.10;99.90;;;;;;5018766;28;20033;-71
2023/08/23 10:02:16;;;;;;;7.68;5.50;;;25.20;99.90;;;;;;5018436;28;20078;-72
2023/08/23 10:04:43;;;;;;;8.18;5.43;;;25.60;99.90;;;;;;5034914;28;20043;-71
2023/08/23 10:07:10;;;;;;;10.40;6.68;;;25.80;99.90;;;;;;5035147;28;20048;-72
2023/08/23 10:09:38;;;;;;;11.10;6.43;;;26.00;99.90;;;;;;5034851;28;20063;-72
2023/08/23 10:12:05;;;;;;;10.07;6.05;;;25.90;99.90;;;;;;5049123;23;20505;-77
2023/08/23 10:14:33;;;;;;;13.45;6.15;;;24.00;99.90;;;;;;5019254;28;20040;-77
2023/08/23 10:17:02;;;;;;;11.48;7.45;;;26.40;99.90;;;;;;5018597;28;20091;-77
2023/08/23 10:19:28;;;;;;;10.88;6.70;;;26.60;99.90;;;;;;5053036;28;20072;-76
2023/08/23 10:21:55;;;;;;;9.35;6.20;;;26.50;99.90;;;;;;5018406;28;20076;-76
2023/08/23 10:24:40;;;;;;;8.23;5.10;;;26.70;99.90;;;;;;5018943;28;20272;-77
2023/08/23 10:27:07;;;;;;;7.95;4.95;;;26.80;99.90;;;;;;5035538;28;20080;-77
2023/08/23 10:29:34;;;;;;;9.77;4.90;;;26.60;99.90;;;;;;5034464;28;20037;-77
2023/08/23 10:32:11;;;;;;;9.32;5.53;;;27.10;99.90;;;;;;5034811;28;20033;-77
2023/08/23 10:34:40;;;;;;;9.70;5.22;;;27.00;99.90;;;;;;5028977;28;20102;-77
2023/08/23 10:37:16;;;;;;;10.25;5.70;;;26.90;99.90;;;;;;5033779;28;20415;-77
2023/08/23 10:39:50;;;;;;;8.90;5.57;;;26.50;99.90;;;;;;5034694;28;20037;-77
2023/08/23 10:42:20;;;;;;;12.10;5.97;;;26.30;99.90;;;;;;5017086;28;20045;-76
2023/08/23 10:45:04;;;;;;;8.85;5.65;;;26.40;99.90;;;;;;5015415;28;20028;-76
2023/08/23 10:47:36;;;;;;;9.48;5.47;;;26.60;99.90;;;;;;5007453;28;20049;-76
2023/08/23 10:50:03;;;;;;;8.90;5.50;;;26.90;99.90;;;;;;5011087;28;20404;-76
2023/08/23 10:52:30;;;;;;;8.68;5.13;;;27.00;99.90;;;;;;5028231;28;20119;-76
2023/08/23 10:54:59;;;;;;;9.75;5.25;;;27.20;99.90;;;;;;5026574;28;20127;-78
2023/08/23 10:57:25;;;;;;;8.02;4.13;;;27.40;99.90;;;;;;5015788;28;20075;-76
2023/08/23 10:59:51;;;;;;;15.57;4.57;;;27.70;99.90;;;;;;5030526;28;20032;-76
2023/08/23 11:02:17;;;;;;;6.82;4.80;;;26.90;99.90;;;;;;5036279;28;20479;-76
2023/08/23 11:04:42;;;;;;;9.43;4.30;;;26.70;99.90;;;;;;5048704;28;20508;-75
2023/08/23 11:07:09;;;;;;;7.35;3.50;;;27.30;99.90;;;;;;5031085;28;20055;-75
2023/08/23 11:09:37;;;;;;;9.02;4.50;;;27.00;99.90;;;;;;5020917;28;20052;-76
2023/08/23 11:12:06;;;;;;;8.32;3.58;;;27.10;99.90;;;;;;5033763;28;20037;-76
2023/08/23 11:14:32;;;;;;;6.43;3.00;;;27.10;99.90;;;;;;5050991;28;20060;-76
2023/08/23 11:16:58;;;;;;;6.13;2.92;;;27.10;99.90;;;;;;5033643;28;20049;-76
2023/08/23 11:19:24;;;;;;;9.82;2.83;;;26.90;99.90;;;;;;5051563;28;20037;-76
2023/08/23 11:21:49;;;;;;;5.35;2.65;;;26.70;99.90;;;;;;5051843;28;20522;-76
2023/08/23 11:24:15;;;;;;;7.43;2.80;;;26.30;99.90;;;;;;5017163;28;20025;-76
2023/08/23 11:26:41;;;;;;;12.85;4.05;;;26.10;99.90;;;;;;5018136;28;20037;-76
2023/08/23 11:29:09;;;;;;;6.97;3.58;;;26.70;99.90;;;;;;5052394;28;20389;-76
2023/08/23 11:31:35;;;;;;;5.35;3.10;;;26.90;99.90;;;;;;5034004;28;20032;-76
2023/08/23 11:34:09;;;;;;;9.73;3.38;;;26.70;99.90;;;;;;5034333;28;20051;-76
2023/08/23 11:36:37;;;;;;;6.13;3.13;;;26.90;99.90;;;;;;5034516;28;20404;-76
2023/08/23 11:39:06;;;;;;;5.25;3.10;;;27.20;99.90;;;;;;5034616;28;20041;-76
2023/08/23 11:41:33;;;;;;;11.60;4.72;;;27.30;99.90;;;;;;5017724;28;20041;-77
2023/08/23 11:44:06;;;;;;;5.57;3.53;;;27.70;99.90;;;;;;5051915;28;20048;-75
2023/08/23 11:46:40;;;;;;;5.68;2.70;;;27.50;99.90;;;;;;5034380;28;20397;-76
2023/08/23 11:49:07;;;;;;;5.75;1.70;;;27.90;99.90;;;;;;5034334;28;20033;-78
2023/08/23 11:51:49;;;;;;;5.93;1.60;;;27.80;99.90;;;;;;5021148;28;20041;-77
2023/08/23 11:54:15;;;;;;;6.37;1.70;;;28.00;99.90;;;;;;5036857;28;20059;-75
2023/08/23 11:56:41;;;;;;;5.93;1.52;;;27.90;99.90;;;;;;5037942;28;20116;-76
2023/08/23 11:59:08;;;;;;;4.15;1.45;;;27.90;99.90;;;;;;5056112;28;20630;-76
2023/08/23 12:01:34;;;;;;;3.53;1.60;;;27.80;99.90;;;;;;5055724;28;20078;-76
2023/08/23 12:04:00;;;;;;;6.55;1.70;;;27.70;99.90;;;;;;5037224;28;20045;-76
2023/08/23 12:06:26;;;;;;;5.60;1.80;;;27.30;99.90;;;;;;5038068;28;20496;-76
2023/08/23 12:08:53;;;;;;;4.28;1.88;;;27.30;99.90;;;;;;5021414;28;20072;-76
2023/08/23 12:11:19;;;;;;;4.57;1.90;;;27.50;99.90;;;;;;5055477;28;20036;-76
2023/08/23 12:13:44;;;;;;;6.28;2.00;;;27.50;99.90;;;;;;5037911;28;20086;-76
2023/08/23 12:16:10;;;;;;;3.63;1.40;;;27.10;99.90;;;;;;5037519;28;20041;-76
2023/08/23 12:18:36;;;;;;;6.57;1.50;;;26.90;99.90;;;;;;5055476;28;20098;-76
2023/08/23 12:21:03;;;;;;;5.68;1.48;;;27.20;99.90;;;;;;5037672;28;20041;-77
2023/08/23 12:23:28;;;;;;;3.63;1.40;;;27.80;99.90;;;;;;5037848;28;20591;-76
2023/08/23 12:25:54;;;;;;;3.90;1.17;;;27.50;99.90;;;;;;5021237;28;20120;-76
2023/08/23 12:28:19;;;;;;;5.50;1.35;;;27.40;99.90;;;;;;5020969;28;20123;-76
2023/08/23 12:30:45;;;;;;;2.78;1.23;;;27.40;99.90;;;;;;5037302;28;20052;-76
2023/08/23 12:33:11;;;;;;;5.25;1.35;;;27.50;99.90;;;;;;5037325;28;20041;-76
2023/08/23 12:35:37;;;;;;;4.63;1.42;;;27.70;99.90;;;;;;5037452;28;20044;-76